Ardmore, North Carolina
Current Conditions -  °F | °C
As of 11:17 PM on Wednesday 26 Nov 2014 (Local Time) from KINT Reporting Station
Moderate Rain Moderate Rain  
Wind Chill: 42°   Ceiling: 700
Heat Index: 42°   Visibility: 3mi
Dew Point: 40°   Wind: 0mph
Humidity: 92%   Direction: NA
Pressure: 30.05"   Gusts: NA
Location:  36.0595°N, 80.3192°W
Report Text: KINT 270417Z AUTO 00000KT 3SM RA BR BKN007 BKN021 OVC026 06/04 A3005 RMK AO2 P0006 T00560044
Loading
Personal Weather Stations






























Interactive Weather Map New forecast layout! Learn more

10-Day Weather Forecast

Advertisements
Track Severe Weather on mobile